createdAt,value
2023-11-16T00:01:15.309Z,3.37
2023-11-16T00:06:17.129Z,2.63
2023-11-16T00:11:19.149Z,2.37
2023-11-16T00:16:21.086Z,2.03
2023-11-16T00:21:22.925Z,2.70
2023-11-16T00:26:25.322Z,2.20
2023-11-16T00:31:27.116Z,2.37
2023-11-16T00:36:29.177Z,2.20
2023-11-16T00:41:30.980Z,2.20
2023-11-16T00:46:37.313Z,2.70
2023-11-16T00:51:39.131Z,2.50
2023-11-16T00:56:42.029Z,2.43
2023-11-16T01:01:45.239Z,2.00
2023-11-16T01:06:47.242Z,2.40
2023-11-16T01:11:49.032Z,2.70
2023-11-16T01:16:54.494Z,2.13
2023-11-16T01:21:56.777Z,2.17
2023-11-16T01:27:14.648Z,2.10
2023-11-16T01:32:16.399Z,2.53
2023-11-16T01:37:18.127Z,2.20
2023-11-16T01:42:19.902Z,2.10
2023-11-16T01:47:21.763Z,2.80
2023-11-16T01:52:23.856Z,2.40
2023-11-16T01:57:25.661Z,2.37
2023-11-16T02:02:30.663Z,1.70
2023-11-16T02:07:32.448Z,2.53
2023-11-16T02:12:34.217Z,2.47
2023-11-16T02:17:37.466Z,1.80
2023-11-16T02:22:40.671Z,2.10
2023-11-16T02:27:42.507Z,3.00
2023-11-16T02:32:44.335Z,2.40
2023-11-16T02:37:46.177Z,1.60
2023-11-16T02:42:48.858Z,1.90
2023-11-16T02:47:51.785Z,2.00
2023-11-16T02:52:54.370Z,2.50
2023-11-16T02:57:56.892Z,2.13
2023-11-16T03:02:59.277Z,2.67
2023-11-16T03:08:01.028Z,2.27
2023-11-16T03:13:05.081Z,2.10
2023-11-16T03:18:07.022Z,2.00
2023-11-16T03:23:08.844Z,2.23
2023-11-16T03:28:10.598Z,2.30
2023-11-16T03:33:13.689Z,2.63
2023-11-16T03:38:17.260Z,2.53
2023-11-16T03:43:19.590Z,2.80
2023-11-16T03:48:23.801Z,2.63
2023-11-16T03:53:25.862Z,2.00
2023-11-16T03:58:27.802Z,2.07
2023-11-16T04:03:30.155Z,2.83
2023-11-16T04:08:31.984Z,2.60
2023-11-16T04:13:33.723Z,2.30
2023-11-16T04:18:35.499Z,2.20
2023-11-16T04:23:40.125Z,2.57
2023-11-16T04:28:45.245Z,2.40
2023-11-16T04:33:52.609Z,1.97
2023-11-16T04:38:57.024Z,1.90
2023-11-16T04:43:58.798Z,2.43
2023-11-16T04:49:01.687Z,2.10
2023-11-16T04:54:03.827Z,2.37
2023-11-16T04:59:08.100Z,2.73
2023-11-16T05:04:09.949Z,2.30
2023-11-16T05:09:11.845Z,2.70
2023-11-16T05:14:13.594Z,2.23
2023-11-16T05:19:15.924Z,2.23
2023-11-16T05:24:17.942Z,2.43
2023-11-16T05:29:19.685Z,2.60
2023-11-16T05:34:21.560Z,2.27
2023-11-16T05:39:24.272Z,1.97
2023-11-16T05:44:26.323Z,2.43
2023-11-16T05:49:30.076Z,2.60
2023-11-16T05:54:33.737Z,2.40
2023-11-16T05:59:35.470Z,2.50
2023-11-16T06:04:37.706Z,2.27
2023-11-16T06:09:39.424Z,2.33
2023-11-16T06:14:46.629Z,2.40
2023-11-16T06:19:48.948Z,3.33
2023-11-16T06:24:50.714Z,3.20
2023-11-16T06:29:52.450Z,4.10
2023-11-16T06:34:54.787Z,3.43
2023-11-16T06:39:56.922Z,2.97
2023-11-16T06:44:59.188Z,3.47
2023-11-16T06:50:01.866Z,3.73
2023-11-16T06:55:06.043Z,4.17
2023-11-16T07:00:16.012Z,4.20
2023-11-16T07:05:17.858Z,3.43
2023-11-16T07:10:19.843Z,4.20
2023-11-16T07:15:22.707Z,3.40
2023-11-16T07:20:24.561Z,4.07
2023-11-16T07:25:28.677Z,3.73
2023-11-16T07:30:32.285Z,7.23
2023-11-16T07:35:35.080Z,5.00
2023-11-16T07:40:36.924Z,4.23
2023-11-16T07:45:38.725Z,3.47
2023-11-16T07:50:40.548Z,3.63
2023-11-16T07:55:44.252Z,3.63
2023-11-16T08:00:56.885Z,3.93
2023-11-16T08:05:59.960Z,4.00
2023-11-16T08:11:05.480Z,3.93
2023-11-16T08:16:08.167Z,4.10
2023-11-16T08:21:10.706Z,3.37
2023-11-16T08:26:16.396Z,3.10
2023-11-16T08:31:19.140Z,12.40
2023-11-16T08:36:21.744Z,8.13
2023-11-16T08:41:23.561Z,5.70
2023-11-16T08:46:26.907Z,5.33
2023-11-16T08:51:29.729Z,2.83
2023-11-16T08:56:40.717Z,2.97
2023-11-16T09:01:45.011Z,2.80
2023-11-16T09:06:46.925Z,3.00
2023-11-16T09:11:48.702Z,3.33
2023-11-16T09:17:05.845Z,3.23
2023-11-16T09:22:12.347Z,3.63
2023-11-16T09:27:16.965Z,3.30
2023-11-16T09:32:19.144Z,4.93
2023-11-16T09:37:21.208Z,4.80
2023-11-16T09:42:28.480Z,5.67
2023-11-16T09:47:32.538Z,5.60
2023-11-16T09:52:39.637Z,4.67
2023-11-16T09:57:47.131Z,5.17
2023-11-16T10:02:54.801Z,3.90
2023-11-16T10:08:08.850Z,3.83
2023-11-16T10:13:10.576Z,4.00
2023-11-16T10:18:12.622Z,3.87
2023-11-16T10:23:14.704Z,4.20
2023-11-16T10:28:24.453Z,4.63
2023-11-16T10:33:29.749Z,2.07
2023-11-16T10:38:34.017Z,1.20
2023-11-16T10:43:37.121Z,1.60
2023-11-16T10:48:39.502Z,1.70
2023-11-16T10:53:41.779Z,1.60
2023-11-16T10:58:44.492Z,1.07
2023-11-16T11:03:48.977Z,1.30
2023-11-16T11:08:54.206Z,1.27
2023-11-16T11:13:59.674Z,1.70
2023-11-16T11:19:05.175Z,1.20
2023-11-16T11:24:09.588Z,1.30
2023-11-16T11:29:13.641Z,1.30
2023-11-16T11:34:16.775Z,1.33
2023-11-16T11:39:18.746Z,1.27
2023-11-16T11:44:20.464Z,1.33
2023-11-16T11:49:22.306Z,1.57
2023-11-16T11:54:37.697Z,1.50
2023-11-16T11:59:39.850Z,1.57
2023-11-16T12:04:41.769Z,1.70
2023-11-16T12:09:45.603Z,2.10
2023-11-16T12:14:49.078Z,2.50
2023-11-16T12:19:51.095Z,2.43
2023-11-16T12:24:53.321Z,2.97
2023-11-16T12:30:04.736Z,3.10
2023-11-16T12:35:07.158Z,3.23
2023-11-16T12:40:18.160Z,2.83
2023-11-16T12:45:21.854Z,3.13
2023-11-16T12:50:23.793Z,3.30
2023-11-16T12:55:26.845Z,2.67
2023-11-16T13:00:28.614Z,2.97
2023-11-16T13:05:32.511Z,3.00
2023-11-16T13:10:34.318Z,2.80
2023-11-16T13:15:37.786Z,1.87
2023-11-16T13:20:40.270Z,1.27
2023-11-16T13:25:42.069Z,1.60
2023-11-16T13:30:43.998Z,1.40
2023-11-16T13:35:45.733Z,2.47
2023-11-16T13:40:47.491Z,2.70
2023-11-16T13:45:49.371Z,2.27
2023-11-16T13:50:53.402Z,1.47
2023-11-16T13:55:55.602Z,1.47
2023-11-16T14:00:57.366Z,2.63
2023-11-16T14:05:59.348Z,2.50
2023-11-16T14:11:01.411Z,1.50
2023-11-16T14:16:05.718Z,3.60
2023-11-16T14:21:08.644Z,1.70
2023-11-16T14:26:10.408Z,1.80
2023-11-16T14:31:12.578Z,2.00
2023-11-16T14:36:14.834Z,1.67
2023-11-16T14:41:16.504Z,1.87
2023-11-16T14:46:19.984Z,3.60
2023-11-16T14:51:22.196Z,3.00
2023-11-16T14:56:23.957Z,3.23
2023-11-16T15:01:27.257Z,4.00
2023-11-16T15:06:29.155Z,3.93
2023-11-16T15:11:31.656Z,3.90
2023-11-16T15:17:01.360Z,4.20
2023-11-16T15:22:03.667Z,4.97
2023-11-16T15:27:05.641Z,5.63
2023-11-16T15:32:18.056Z,6.10
2023-11-16T15:37:22.697Z,7.23
2023-11-16T15:42:27.983Z,7.63
2023-11-16T15:47:32.222Z,5.20
2023-11-16T15:52:34.311Z,4.83
2023-11-16T15:57:36.052Z,4.80
2023-11-16T16:02:40.083Z,1.70
2023-11-16T16:07:41.970Z,2.30
2023-11-16T16:12:43.792Z,2.00
2023-11-16T16:17:45.950Z,1.87
2023-11-16T16:22:47.684Z,2.60
2023-11-16T16:27:51.324Z,2.03
2023-11-16T16:32:53.108Z,3.50
2023-11-16T16:37:54.826Z,1.93
2023-11-16T16:42:56.617Z,2.07
2023-11-16T16:48:06.672Z,1.83
2023-11-16T16:53:11.357Z,2.60
2023-11-16T16:58:13.053Z,3.20
2023-11-16T17:03:15.234Z,2.30
2023-11-16T17:08:17.126Z,2.37
2023-11-16T17:13:18.842Z,2.30
2023-11-16T17:18:20.952Z,2.87
2023-11-16T17:23:22.782Z,2.53
2023-11-16T17:28:24.537Z,2.43
2023-11-16T17:33:26.324Z,2.00
2023-11-16T17:38:28.068Z,2.00
2023-11-16T17:43:36.438Z,1.90
2023-11-16T17:48:41.973Z,2.23
2023-11-16T17:53:50.368Z,1.60
2023-11-16T17:59:02.112Z,1.80
2023-11-16T18:04:10.080Z,1.70
2023-11-16T18:09:16.507Z,2.40
2023-11-16T18:14:19.369Z,1.97
2023-11-16T18:19:24.286Z,1.77
2023-11-16T18:24:26.194Z,1.80
2023-11-16T18:29:33.439Z,2.80
2023-11-16T18:34:45.370Z,2.60
2023-11-16T18:39:47.795Z,1.60
2023-11-16T18:44:49.689Z,1.73
2023-11-16T18:49:52.254Z,1.20
2023-11-16T18:54:54.063Z,2.10
2023-11-16T18:59:56.005Z,1.50
2023-11-16T19:05:06.197Z,2.10
2023-11-16T19:10:08.634Z,1.60
2023-11-16T19:15:12.890Z,1.70
2023-11-16T19:20:15.771Z,1.97
2023-11-16T19:25:17.538Z,1.70
2023-11-16T19:30:19.275Z,1.53
2023-11-16T19:35:21.295Z,1.73
2023-11-16T19:40:33.567Z,1.53
2023-11-16T19:45:41.385Z,1.63
2023-11-16T19:50:45.097Z,1.60
2023-11-16T19:55:46.810Z,1.60
2023-11-16T20:00:48.700Z,1.70
2023-11-16T20:05:50.518Z,1.10
2023-11-16T20:10:52.295Z,1.77
2023-11-16T20:15:56.366Z,1.50
2023-11-16T20:21:00.000Z,1.43
2023-11-16T20:26:02.876Z,2.70
2023-11-16T20:31:05.248Z,1.73
2023-11-16T20:36:15.303Z,1.47
2023-11-16T20:41:17.024Z,1.50
2023-11-16T20:46:20.024Z,1.63
2023-11-16T20:51:24.221Z,1.27
2023-11-16T20:56:26.282Z,1.53
2023-11-16T21:01:28.371Z,1.60
2023-11-16T21:06:30.145Z,1.40
2023-11-16T21:11:31.832Z,1.73
2023-11-16T21:16:34.075Z,1.60
2023-11-16T21:21:36.027Z,1.40
2023-11-16T21:26:37.852Z,2.57
2023-11-16T21:31:40.318Z,1.20
2023-11-16T21:36:42.778Z,1.20
2023-11-16T21:41:45.615Z,1.03
2023-11-16T21:46:49.336Z,1.30
2023-11-16T21:51:55.568Z,1.53
2023-11-16T21:56:57.410Z,1.30
2023-11-16T22:02:01.208Z,1.83
2023-11-16T22:07:07.178Z,1.23
2023-11-16T22:12:09.667Z,1.40
2023-11-16T22:17:11.560Z,0.90
2023-11-16T22:22:13.409Z,1.33
2023-11-16T22:27:15.210Z,0.90
2023-11-16T22:32:16.993Z,0.90
2023-11-16T22:37:19.015Z,0.77
2023-11-16T22:42:21.262Z,0.67
2023-11-16T22:47:23.753Z,0.73
2023-11-16T22:52:27.426Z,1.53
2023-11-16T22:57:29.324Z,2.47
2023-11-16T23:02:31.112Z,2.13
2023-11-16T23:07:32.831Z,1.80
2023-11-16T23:12:34.543Z,0.97
2023-11-16T23:17:37.447Z,1.23
2023-11-16T23:22:41.055Z,1.77
2023-11-16T23:27:47.121Z,2.00
2023-11-16T23:32:49.065Z,2.10
2023-11-16T23:37:53.597Z,2.30
2023-11-16T23:42:55.428Z,2.43
2023-11-16T23:47:58.090Z,2.50
2023-11-16T23:53:00.969Z,2.63
2023-11-16T23:58:03.370Z,2.37
